sensor_id;sensor_type;location;lat;lon;timestamp;P1;durP1;ratioP1;P2;durP2;ratioP2
74789;SDS011;63318;52.406;13.416;2023-02-01T00:00:54;13.80;;;2.50;;
74789;SDS011;63318;52.406;13.416;2023-02-01T00:03:22;13.60;;;2.10;;
74789;SDS011;63318;52.406;13.416;2023-02-01T00:05:56;18.60;;;2.40;;
74789;SDS011;63318;52.406;13.416;2023-02-01T00:08:25;14.40;;;2.20;;
74789;SDS011;63318;52.406;13.416;2023-02-01T00:10:59;14.30;;;2.40;;
74789;SDS011;63318;52.406;13.416;2023-02-01T00:13:29;11.80;;;2.10;;
74789;SDS011;63318;52.406;13.416;2023-02-01T00:16:03;14.70;;;2.40;;
74789;SDS011;63318;52.406;13.416;2023-02-01T00:18:32;13.10;;;1.80;;
74789;SDS011;63318;52.406;13.416;2023-02-01T00:21:01;9.90;;;1.80;;
74789;SDS011;63318;52.406;13.416;2023-02-01T00:23:30;9.30;;;1.60;;
74789;SDS011;63318;52.406;13.416;2023-02-01T00:26:01;10.70;;;1.40;;
74789;SDS011;63318;52.406;13.416;2023-02-01T00:28:31;17.90;;;1.80;;
74789;SDS011;63318;52.406;13.416;2023-02-01T00:30:59;13.30;;;2.20;;
74789;SDS011;63318;52.406;13.416;2023-02-01T00:33:30;14.40;;;2.00;;
74789;SDS011;63318;52.406;13.416;2023-02-01T00:35:59;9.60;;;2.40;;
74789;SDS011;63318;52.406;13.416;2023-02-01T00:38:29;10.10;;;2.10;;
74789;SDS011;63318;52.406;13.416;2023-02-01T00:41:03;10.80;;;2.20;;
74789;SDS011;63318;52.406;13.416;2023-02-01T00:43:32;12.20;;;2.30;;
74789;SDS011;63318;52.406;13.416;2023-02-01T00:46:01;12.90;;;1.70;;
74789;SDS011;63318;52.406;13.416;2023-02-01T00:48:29;8.00;;;1.70;;
74789;SDS011;63318;52.406;13.416;2023-02-01T00:51:00;11.70;;;1.70;;
74789;SDS011;63318;52.406;13.416;2023-02-01T00:53:30;9.60;;;2.40;;
74789;SDS011;63318;52.406;13.416;2023-02-01T00:55:59;12.80;;;2.00;;
74789;SDS011;63318;52.406;13.416;2023-02-01T00:58:27;11.40;;;1.70;;
74789;SDS011;63318;52.406;13.416;2023-02-01T01:01:02;8.80;;;1.70;;
74789;SDS011;63318;52.406;13.416;2023-02-01T01:03:33;10.70;;;1.70;;
74789;SDS011;63318;52.406;13.416;2023-02-01T01:06:04;9.70;;;2.10;;
74789;SDS011;63318;52.406;13.416;2023-02-01T01:08:35;11.20;;;1.70;;
74789;SDS011;63318;52.406;13.416;2023-02-01T01:11:08;6.80;;;1.30;;
74789;SDS011;63318;52.406;13.416;2023-02-01T01:13:37;11.70;;;1.20;;
74789;SDS011;63318;52.406;13.416;2023-02-01T01:16:06;9.00;;;1.20;;
74789;SDS011;63318;52.406;13.416;2023-02-01T01:18:36;11.50;;;1.70;;
74789;SDS011;63318;52.406;13.416;2023-02-01T01:21:05;8.80;;;1.50;;
74789;SDS011;63318;52.406;13.416;2023-02-01T01:23:34;11.30;;;1.50;;
74789;SDS011;63318;52.406;13.416;2023-02-01T01:26:05;11.20;;;2.40;;
74789;SDS011;63318;52.406;13.416;2023-02-01T01:28:35;8.50;;;1.50;;
74789;SDS011;63318;52.406;13.416;2023-02-01T01:31:04;14.80;;;2.40;;
74789;SDS011;63318;52.406;13.416;2023-02-01T01:33:36;9.90;;;1.70;;
74789;SDS011;63318;52.406;13.416;2023-02-01T01:36:05;8.50;;;1.80;;
74789;SDS011;63318;52.406;13.416;2023-02-01T01:38:34;7.50;;;1.60;;
74789;SDS011;63318;52.406;13.416;2023-02-01T01:41:03;14.50;;;1.90;;
74789;SDS011;63318;52.406;13.416;2023-02-01T01:43:46;8.20;;;1.80;;
74789;SDS011;63318;52.406;13.416;2023-02-01T01:46:43;11.60;;;1.40;;
74789;SDS011;63318;52.406;13.416;2023-02-01T01:49:12;9.50;;;1.40;;
74789;SDS011;63318;52.406;13.416;2023-02-01T01:51:43;10.70;;;1.80;;
74789;SDS011;63318;52.406;13.416;2023-02-01T01:54:16;14.60;;;1.90;;
74789;SDS011;63318;52.406;13.416;2023-02-01T01:56:51;13.80;;;1.70;;
74789;SDS011;63318;52.406;13.416;2023-02-01T01:59:22;10.80;;;2.00;;
74789;SDS011;63318;52.406;13.416;2023-02-01T02:01:51;8.10;;;1.50;;
74789;SDS011;63318;52.406;13.416;2023-02-01T02:04:22;11.70;;;1.60;;
74789;SDS011;63318;52.406;13.416;2023-02-01T02:06:51;10.80;;;2.90;;
74789;SDS011;63318;52.406;13.416;2023-02-01T02:09:25;9.80;;;1.50;;
74789;SDS011;63318;52.406;13.416;2023-02-01T02:11:53;12.00;;;1.60;;
74789;SDS011;63318;52.406;13.416;2023-02-01T02:14:22;6.90;;;1.80;;
74789;SDS011;63318;52.406;13.416;2023-02-01T02:16:54;13.30;;;2.30;;
74789;SDS011;63318;52.406;13.416;2023-02-01T02:25:56;8.90;;;1.40;;
74789;SDS011;63318;52.406;13.416;2023-02-01T02:28:45;6.70;;;1.30;;
74789;SDS011;63318;52.406;13.416;2023-02-01T02:31:38;10.40;;;1.50;;
74789;SDS011;63318;52.406;13.416;2023-02-01T02:34:17;12.60;;;1.70;;
74789;SDS011;63318;52.406;13.416;2023-02-01T02:36:54;6.50;;;1.40;;
74789;SDS011;63318;52.406;13.416;2023-02-01T02:39:33;10.90;;;1.60;;
74789;SDS011;63318;52.406;13.416;2023-02-01T02:42:16;5.80;;;1.30;;
74789;SDS011;63318;52.406;13.416;2023-02-01T02:44:53;11.20;;;1.90;;
74789;SDS011;63318;52.406;13.416;2023-02-01T02:47:34;11.70;;;2.20;;
74789;SDS011;63318;52.406;13.416;2023-02-01T02:50:14;10.60;;;2.20;;
74789;SDS011;63318;52.406;13.416;2023-02-01T02:52:50;9.30;;;1.50;;
74789;SDS011;63318;52.406;13.416;2023-02-01T02:55:24;10.50;;;2.10;;
74789;SDS011;63318;52.406;13.416;2023-02-01T02:57:54;11.40;;;1.50;;
74789;SDS011;63318;52.406;13.416;2023-02-01T03:00:27;11.60;;;1.50;;
74789;SDS011;63318;52.406;13.416;2023-02-01T03:02:58;8.30;;;2.00;;
74789;SDS011;63318;52.406;13.416;2023-02-01T03:05:27;11.60;;;1.40;;
74789;SDS011;63318;52.406;13.416;2023-02-01T03:08:05;14.30;;;1.60;;
74789;SDS011;63318;52.406;13.416;2023-02-01T03:10:37;10.60;;;1.60;;
74789;SDS011;63318;52.406;13.416;2023-02-01T03:13:13;10.20;;;1.70;;
74789;SDS011;63318;52.406;13.416;2023-02-01T03:15:48;13.30;;;1.80;;
74789;SDS011;63318;52.406;13.416;2023-02-01T03:18:24;9.80;;;1.90;;
74789;SDS011;63318;52.406;13.416;2023-02-01T03:23:26;9.20;;;2.30;;
74789;SDS011;63318;52.406;13.416;2023-02-01T03:25:57;8.80;;;1.70;;
74789;SDS011;63318;52.406;13.416;2023-02-01T03:28:28;11.90;;;1.90;;
74789;SDS011;63318;52.406;13.416;2023-02-01T03:31:00;5.70;;;1.20;;
74789;SDS011;63318;52.406;13.416;2023-02-01T03:33:29;10.90;;;1.50;;
74789;SDS011;63318;52.406;13.416;2023-02-01T03:36:00;14.80;;;2.50;;
74789;SDS011;63318;52.406;13.416;2023-02-01T03:38:37;12.10;;;1.70;;
74789;SDS011;63318;52.406;13.416;2023-02-01T03:41:11;14.50;;;1.90;;
74789;SDS011;63318;52.406;13.416;2023-02-01T03:43:45;15.50;;;3.20;;
74789;SDS011;63318;52.406;13.416;2023-02-01T03:46:22;10.40;;;1.70;;
74789;SDS011;63318;52.406;13.416;2023-02-01T03:48:55;17.10;;;2.20;;
74789;SDS011;63318;52.406;13.416;2023-02-01T03:51:24;14.80;;;1.80;;
74789;SDS011;63318;52.406;13.416;2023-02-01T03:53:53;14.90;;;2.30;;
74789;SDS011;63318;52.406;13.416;2023-02-01T03:56:23;10.90;;;2.10;;
74789;SDS011;63318;52.406;13.416;2023-02-01T03:58:54;12.70;;;2.00;;
74789;SDS011;63318;52.406;13.416;2023-02-01T04:01:23;5.30;;;1.80;;
74789;SDS011;63318;52.406;13.416;2023-02-01T04:03:51;7.40;;;1.60;;
74789;SDS011;63318;52.406;13.416;2023-02-01T04:06:19;13.50;;;2.20;;
74789;SDS011;63318;52.406;13.416;2023-02-01T04:08:48;14.60;;;2.30;;
74789;SDS011;63318;52.406;13.416;2023-02-01T04:11:16;13.30;;;2.00;;
74789;SDS011;63318;52.406;13.416;2023-02-01T04:13:45;14.90;;;2.10;;
74789;SDS011;63318;52.406;13.416;2023-02-01T04:16:13;10.60;;;2.10;;
74789;SDS011;63318;52.406;13.416;2023-02-01T04:18:41;13.40;;;2.00;;
74789;SDS011;63318;52.406;13.416;2023-02-01T04:21:09;10.10;;;1.60;;
74789;SDS011;63318;52.406;13.416;2023-02-01T04:23:38;13.80;;;1.80;;
74789;SDS011;63318;52.406;13.416;2023-02-01T04:26:06;15.50;;;2.50;;
74789;SDS011;63318;52.406;13.416;2023-02-01T04:28:34;9.10;;;2.10;;
74789;SDS011;63318;52.406;13.416;2023-02-01T04:31:02;15.00;;;3.00;;
74789;SDS011;63318;52.406;13.416;2023-02-01T04:33:31;9.70;;;1.80;;
74789;SDS011;63318;52.406;13.416;2023-02-01T04:35:59;11.70;;;1.80;;
74789;SDS011;63318;52.406;13.416;2023-02-01T04:38:27;14.50;;;1.80;;
74789;SDS011;63318;52.406;13.416;2023-02-01T04:40:55;12.70;;;2.40;;
74789;SDS011;63318;52.406;13.416;2023-02-01T04:43:24;15.80;;;2.30;;
74789;SDS011;63318;52.406;13.416;2023-02-01T04:45:52;22.70;;;2.60;;
74789;SDS011;63318;52.406;13.416;2023-02-01T04:48:20;10.10;;;1.30;;
74789;SDS011;63318;52.406;13.416;2023-02-01T04:50:49;13.00;;;1.70;;
74789;SDS011;63318;52.406;13.416;2023-02-01T04:53:17;9.20;;;2.10;;
74789;SDS011;63318;52.406;13.416;2023-02-01T04:55:47;13.60;;;2.60;;
74789;SDS011;63318;52.406;13.416;2023-02-01T04:58:16;13.50;;;1.80;;
74789;SDS011;63318;52.406;13.416;2023-02-01T05:00:44;10.90;;;2.10;;
74789;SDS011;63318;52.406;13.416;2023-02-01T05:03:12;11.20;;;1.90;;
74789;SDS011;63318;52.406;13.416;2023-02-01T05:05:40;10.40;;;2.10;;
74789;SDS011;63318;52.406;13.416;2023-02-01T05:08:08;13.10;;;2.40;;
74789;SDS011;63318;52.406;13.416;2023-02-01T05:10:37;9.90;;;1.50;;
74789;SDS011;63318;52.406;13.416;2023-02-01T05:13:05;12.20;;;1.90;;
74789;SDS011;63318;52.406;13.416;2023-02-01T05:15:33;9.10;;;1.90;;
74789;SDS011;63318;52.406;13.416;2023-02-01T05:18:02;9.40;;;1.70;;
74789;SDS011;63318;52.406;13.416;2023-02-01T05:20:32;17.80;;;2.40;;
74789;SDS011;63318;52.406;13.416;2023-02-01T05:23:00;13.30;;;2.10;;
74789;SDS011;63318;52.406;13.416;2023-02-01T05:25:28;8.50;;;2.20;;
74789;SDS011;63318;52.406;13.416;2023-02-01T05:27:57;10.10;;;1.70;;
74789;SDS011;63318;52.406;13.416;2023-02-01T05:30:25;10.30;;;1.60;;
74789;SDS011;63318;52.406;13.416;2023-02-01T05:32:53;16.10;;;3.50;;
74789;SDS011;63318;52.406;13.416;2023-02-01T05:35:21;18.60;;;2.80;;
74789;SDS011;63318;52.406;13.416;2023-02-01T05:37:49;10.00;;;2.50;;
74789;SDS011;63318;52.406;13.416;2023-02-01T05:40:18;21.30;;;2.40;;
74789;SDS011;63318;52.406;13.416;2023-02-01T05:42:46;9.10;;;1.70;;
74789;SDS011;63318;52.406;13.416;2023-02-01T05:45:14;9.90;;;2.00;;
74789;SDS011;63318;52.406;13.416;2023-02-01T05:47:43;13.10;;;2.20;;
74789;SDS011;63318;52.406;13.416;2023-02-01T05:50:11;8.20;;;1.80;;
74789;SDS011;63318;52.406;13.416;2023-02-01T05:52:39;14.80;;;2.60;;
74789;SDS011;63318;52.406;13.416;2023-02-01T05:55:08;15.50;;;1.90;;
74789;SDS011;63318;52.406;13.416;2023-02-01T05:57:36;17.10;;;2.60;;
74789;SDS011;63318;52.406;13.416;2023-02-01T06:00:05;9.40;;;1.80;;
74789;SDS011;63318;52.406;13.416;2023-02-01T06:02:35;10.80;;;2.60;;
74789;SDS011;63318;52.406;13.416;2023-02-01T06:05:04;15.70;;;2.50;;
74789;SDS011;63318;52.406;13.416;2023-02-01T06:07:33;12.10;;;2.00;;
74789;SDS011;63318;52.406;13.416;2023-02-01T06:10:01;10.50;;;1.70;;
74789;SDS011;63318;52.406;13.416;2023-02-01T06:12:30;12.40;;;2.10;;
74789;SDS011;63318;52.406;13.416;2023-02-01T06:14:58;14.90;;;2.20;;
74789;SDS011;63318;52.406;13.416;2023-02-01T06:17:26;13.30;;;2.20;;
74789;SDS011;63318;52.406;13.416;2023-02-01T06:19:55;15.20;;;2.50;;
74789;SDS011;63318;52.406;13.416;2023-02-01T06:22:23;11.00;;;1.60;;
74789;SDS011;63318;52.406;13.416;2023-02-01T06:24:51;9.70;;;2.20;;
74789;SDS011;63318;52.406;13.416;2023-02-01T06:27:20;12.70;;;2.10;;
74789;SDS011;63318;52.406;13.416;2023-02-01T06:29:48;10.10;;;1.70;;
74789;SDS011;63318;52.406;13.416;2023-02-01T06:32:16;13.00;;;1.80;;
74789;SDS011;63318;52.406;13.416;2023-02-01T06:34:44;12.60;;;2.50;;
74789;SDS011;63318;52.406;13.416;2023-02-01T06:37:13;15.70;;;1.70;;
74789;SDS011;63318;52.406;13.416;2023-02-01T06:39:41;10.80;;;2.50;;
74789;SDS011;63318;52.406;13.416;2023-02-01T06:42:09;7.50;;;2.00;;
74789;SDS011;63318;52.406;13.416;2023-02-01T06:44:37;14.10;;;1.80;;
74789;SDS011;63318;52.406;13.416;2023-02-01T06:47:06;11.60;;;1.90;;
74789;SDS011;63318;52.406;13.416;2023-02-01T06:49:34;10.20;;;1.70;;
74789;SDS011;63318;52.406;13.416;2023-02-01T06:52:03;18.90;;;3.00;;
74789;SDS011;63318;52.406;13.416;2023-02-01T06:54:31;14.60;;;2.00;;
74789;SDS011;63318;52.406;13.416;2023-02-01T06:56:59;8.80;;;2.20;;
74789;SDS011;63318;52.406;13.416;2023-02-01T06:59:28;16.10;;;2.70;;
74789;SDS011;63318;52.406;13.416;2023-02-01T07:01:56;16.90;;;2.00;;
74789;SDS011;63318;52.406;13.416;2023-02-01T07:04:24;9.80;;;2.00;;
74789;SDS011;63318;52.406;13.416;2023-02-01T07:06:52;12.40;;;2.30;;
74789;SDS011;63318;52.406;13.416;2023-02-01T07:09:21;19.10;;;3.00;;
74789;SDS011;63318;52.406;13.416;2023-02-01T07:11:49;11.90;;;2.40;;
74789;SDS011;63318;52.406;13.416;2023-02-01T07:14:17;19.00;;;2.30;;
74789;SDS011;63318;52.406;13.416;2023-02-01T07:16:45;10.40;;;1.60;;
74789;SDS011;63318;52.406;13.416;2023-02-01T07:19:13;13.30;;;3.10;;
74789;SDS011;63318;52.406;13.416;2023-02-01T07:21:42;17.40;;;2.60;;
74789;SDS011;63318;52.406;13.416;2023-02-01T07:24:10;10.80;;;2.20;;
74789;SDS011;63318;52.406;13.416;2023-02-01T07:26:38;8.10;;;1.40;;
74789;SDS011;63318;52.406;13.416;2023-02-01T07:29:06;10.50;;;2.20;;
74789;SDS011;63318;52.406;13.416;2023-02-01T07:31:35;12.50;;;2.50;;
74789;SDS011;63318;52.406;13.416;2023-02-01T07:34:03;12.00;;;2.30;;
74789;SDS011;63318;52.406;13.416;2023-02-01T07:36:31;15.80;;;2.60;;
74789;SDS011;63318;52.406;13.416;2023-02-01T07:38:59;11.10;;;2.20;;
74789;SDS011;63318;52.406;13.416;2023-02-01T07:41:27;8.90;;;2.30;;
74789;SDS011;63318;52.406;13.416;2023-02-01T07:43:56;12.70;;;2.00;;
74789;SDS011;63318;52.406;13.416;2023-02-01T07:46:24;7.10;;;1.80;;
74789;SDS011;63318;52.406;13.416;2023-02-01T07:48:52;17.50;;;2.60;;
74789;SDS011;63318;52.406;13.416;2023-02-01T07:51:21;7.90;;;2.20;;
74789;SDS011;63318;52.406;13.416;2023-02-01T07:53:51;11.70;;;3.00;;
74789;SDS011;63318;52.406;13.416;2023-02-01T07:56:20;10.50;;;2.40;;
74789;SDS011;63318;52.406;13.416;2023-02-01T07:58:49;15.10;;;2.40;;
74789;SDS011;63318;52.406;13.416;2023-02-01T08:01:19;11.20;;;2.60;;
74789;SDS011;63318;52.406;13.416;2023-02-01T08:03:52;14.40;;;2.50;;
74789;SDS011;63318;52.406;13.416;2023-02-01T08:06:22;10.60;;;2.80;;
74789;SDS011;63318;52.406;13.416;2023-02-01T08:08:52;9.60;;;2.10;;
74789;SDS011;63318;52.406;13.416;2023-02-01T08:11:21;9.30;;;2.10;;
74789;SDS011;63318;52.406;13.416;2023-02-01T08:13:50;7.60;;;2.60;;
74789;SDS011;63318;52.406;13.416;2023-02-01T08:16:20;9.60;;;2.00;;
74789;SDS011;63318;52.406;13.416;2023-02-01T08:18:49;9.90;;;2.30;;
74789;SDS011;63318;52.406;13.416;2023-02-01T08:21:19;8.50;;;1.90;;
74789;SDS011;63318;52.406;13.416;2023-02-01T08:23:49;10.60;;;2.40;;
74789;SDS011;63318;52.406;13.416;2023-02-01T08:26:19;9.20;;;2.10;;
74789;SDS011;63318;52.406;13.416;2023-02-01T08:28:49;7.60;;;2.50;;
74789;SDS011;63318;52.406;13.416;2023-02-01T08:31:21;5.20;;;1.80;;
74789;SDS011;63318;52.406;13.416;2023-02-01T08:33:51;8.40;;;3.00;;
74789;SDS011;63318;52.406;13.416;2023-02-01T08:36:21;11.70;;;2.10;;
74789;SDS011;63318;52.406;13.416;2023-02-01T08:38:51;9.90;;;2.20;;
74789;SDS011;63318;52.406;13.416;2023-02-01T08:41:21;8.90;;;1.90;;
74789;SDS011;63318;52.406;13.416;2023-02-01T08:43:51;9.00;;;2.40;;
74789;SDS011;63318;52.406;13.416;2023-02-01T08:46:20;11.00;;;2.80;;
74789;SDS011;63318;52.406;13.416;2023-02-01T08:48:49;10.50;;;3.10;;
74789;SDS011;63318;52.406;13.416;2023-02-01T08:51:19;6.20;;;2.80;;
74789;SDS011;63318;52.406;13.416;2023-02-01T08:53:49;9.30;;;2.70;;
74789;SDS011;63318;52.406;13.416;2023-02-01T08:56:18;9.00;;;2.70;;
74789;SDS011;63318;52.406;13.416;2023-02-01T08:58:47;10.70;;;2.50;;
74789;SDS011;63318;52.406;13.416;2023-02-01T09:01:16;5.10;;;1.50;;
74789;SDS011;63318;52.406;13.416;2023-02-01T09:03:44;7.10;;;1.50;;
74789;SDS011;63318;52.406;13.416;2023-02-01T09:06:13;4.90;;;1.40;;
74789;SDS011;63318;52.406;13.416;2023-02-01T09:08:42;9.10;;;1.30;;
74789;SDS011;63318;52.406;13.416;2023-02-01T09:11:12;4.40;;;1.30;;
74789;SDS011;63318;52.406;13.416;2023-02-01T09:13:42;3.40;;;1.20;;
74789;SDS011;63318;52.406;13.416;2023-02-01T09:16:11;3.60;;;1.20;;
74789;SDS011;63318;52.406;13.416;2023-02-01T09:18:41;2.40;;;0.90;;
74789;SDS011;63318;52.406;13.416;2023-02-01T09:21:09;2.40;;;0.90;;
74789;SDS011;63318;52.406;13.416;2023-02-01T09:23:38;4.70;;;1.20;;
74789;SDS011;63318;52.406;13.416;2023-02-01T09:26:07;2.60;;;0.70;;
74789;SDS011;63318;52.406;13.416;2023-02-01T09:28:35;3.50;;;1.10;;
74789;SDS011;63318;52.406;13.416;2023-02-01T09:31:04;2.10;;;0.80;;
74789;SDS011;63318;52.406;13.416;2023-02-01T09:33:32;2.20;;;0.80;;
74789;SDS011;63318;52.406;13.416;2023-02-01T09:36:02;4.50;;;1.10;;
74789;SDS011;63318;52.406;13.416;2023-02-01T09:38:32;3.70;;;1.10;;
74789;SDS011;63318;52.406;13.416;2023-02-01T09:41:01;5.50;;;1.20;;
74789;SDS011;63318;52.406;13.416;2023-02-01T09:43:39;4.70;;;1.10;;
74789;SDS011;63318;52.406;13.416;2023-02-01T09:46:18;2.00;;;0.70;;
74789;SDS011;63318;52.406;13.416;2023-02-01T09:48:57;4.30;;;1.00;;
74789;SDS011;63318;52.406;13.416;2023-02-01T09:51:29;3.00;;;1.10;;
74789;SDS011;63318;52.406;13.416;2023-02-01T09:54:02;2.60;;;0.90;;
74789;SDS011;63318;52.406;13.416;2023-02-01T09:56:38;2.70;;;0.90;;
74789;SDS011;63318;52.406;13.416;2023-02-01T09:59:14;5.20;;;1.60;;
74789;SDS011;63318;52.406;13.416;2023-02-01T10:01:51;3.10;;;0.70;;
74789;SDS011;63318;52.406;13.416;2023-02-01T10:04:20;4.20;;;1.00;;
74789;SDS011;63318;52.406;13.416;2023-02-01T10:06:53;5.00;;;1.20;;
74789;SDS011;63318;52.406;13.416;2023-02-01T10:09:32;3.70;;;1.10;;
74789;SDS011;63318;52.406;13.416;2023-02-01T10:12:32;2.80;;;1.00;;
74789;SDS011;63318;52.406;13.416;2023-02-01T10:15:15;4.90;;;1.20;;
74789;SDS011;63318;52.406;13.416;2023-02-01T10:18:13;4.10;;;1.10;;
74789;SDS011;63318;52.406;13.416;2023-02-01T10:21:04;3.50;;;1.20;;
74789;SDS011;63318;52.406;13.416;2023-02-01T10:23:53;2.40;;;0.70;;
74789;SDS011;63318;52.406;13.416;2023-02-01T10:26:32;4.30;;;1.00;;
74789;SDS011;63318;52.406;13.416;2023-02-01T10:29:04;7.90;;;1.40;;
74789;SDS011;63318;52.406;13.416;2023-02-01T10:31:42;3.50;;;1.10;;
74789;SDS011;63318;52.406;13.416;2023-02-01T10:34:21;4.90;;;1.40;;
74789;SDS011;63318;52.406;13.416;2023-02-01T10:36:54;7.10;;;1.20;;
74789;SDS011;63318;52.406;13.416;2023-02-01T10:39:26;3.70;;;0.90;;
74789;SDS011;63318;52.406;13.416;2023-02-01T10:41:54;4.20;;;1.10;;
74789;SDS011;63318;52.406;13.416;2023-02-01T10:44:24;5.40;;;1.10;;
74789;SDS011;63318;52.406;13.416;2023-02-01T10:46:54;2.80;;;0.90;;
74789;SDS011;63318;52.406;13.416;2023-02-01T10:49:24;6.60;;;1.10;;
74789;SDS011;63318;52.406;13.416;2023-02-01T10:52:01;6.20;;;0.80;;
74789;SDS011;63318;52.406;13.416;2023-02-01T10:54:38;5.50;;;1.20;;
74789;SDS011;63318;52.406;13.416;2023-02-01T10:57:08;3.00;;;0.90;;
74789;SDS011;63318;52.406;13.416;2023-02-01T10:59:45;4.80;;;1.10;;
74789;SDS011;63318;52.406;13.416;2023-02-01T11:02:19;7.90;;;1.20;;
74789;SDS011;63318;52.406;13.416;2023-02-01T11:05:02;5.20;;;1.00;;
74789;SDS011;63318;52.406;13.416;2023-02-01T11:07:33;4.30;;;1.00;;
74789;SDS011;63318;52.406;13.416;2023-02-01T11:10:02;3.70;;;0.90;;
74789;SDS011;63318;52.406;13.416;2023-02-01T11:12:33;3.30;;;1.10;;
74789;SDS011;63318;52.406;13.416;2023-02-01T11:15:12;3.90;;;1.10;;
74789;SDS011;63318;52.406;13.416;2023-02-01T11:17:49;4.60;;;1.40;;
74789;SDS011;63318;52.406;13.416;2023-02-01T11:20:19;4.40;;;1.00;;
74789;SDS011;63318;52.406;13.416;2023-02-01T11:23:00;6.10;;;1.20;;
74789;SDS011;63318;52.406;13.416;2023-02-01T11:25:30;5.00;;;1.40;;
74789;SDS011;63318;52.406;13.416;2023-02-01T11:28:04;6.20;;;1.80;;
74789;SDS011;63318;52.406;13.416;2023-02-01T11:30:36;8.10;;;1.30;;
74789;SDS011;63318;52.406;13.416;2023-02-01T11:33:09;6.00;;;1.20;;
74789;SDS011;63318;52.406;13.416;2023-02-01T11:35:42;7.20;;;1.40;;
74789;SDS011;63318;52.406;13.416;2023-02-01T11:38:13;6.80;;;1.50;;
74789;SDS011;63318;52.406;13.416;2023-02-01T11:40:48;5.60;;;1.40;;
74789;SDS011;63318;52.406;13.416;2023-02-01T11:43:22;8.10;;;1.70;;
74789;SDS011;63318;52.406;13.416;2023-02-01T11:48:43;5.30;;;1.10;;
74789;SDS011;63318;52.406;13.416;2023-02-01T11:51:19;5.40;;;1.00;;
74789;SDS011;63318;52.406;13.416;2023-02-01T11:54:07;4.40;;;0.90;;
74789;SDS011;63318;52.406;13.416;2023-02-01T11:56:46;6.70;;;1.00;;
74789;SDS011;63318;52.406;13.416;2023-02-01T11:59:28;4.00;;;1.10;;
74789;SDS011;63318;52.406;13.416;2023-02-01T12:02:11;7.60;;;1.10;;
74789;SDS011;63318;52.406;13.416;2023-02-01T12:05:07;4.80;;;1.10;;
74789;SDS011;63318;52.406;13.416;2023-02-01T12:10:45;4.30;;;1.00;;
74789;SDS011;63318;52.406;13.416;2023-02-01T12:13:24;7.20;;;1.20;;
74789;SDS011;63318;52.406;13.416;2023-02-01T12:16:11;9.90;;;1.60;;
74789;SDS011;63318;52.406;13.416;2023-02-01T12:18:57;8.60;;;1.50;;
74789;SDS011;63318;52.406;13.416;2023-02-01T12:21:50;8.40;;;1.20;;
74789;SDS011;63318;52.406;13.416;2023-02-01T12:24:29;8.00;;;0.90;;
74789;SDS011;63318;52.406;13.416;2023-02-01T12:27:11;6.10;;;1.50;;
74789;SDS011;63318;52.406;13.416;2023-02-01T12:29:57;7.00;;;1.30;;
74789;SDS011;63318;52.406;13.416;2023-02-01T12:32:46;6.00;;;1.10;;
74789;SDS011;63318;52.406;13.416;2023-02-01T12:35:31;7.90;;;2.20;;
74789;SDS011;63318;52.406;13.416;2023-02-01T12:38:20;6.00;;;1.10;;
74789;SDS011;63318;52.406;13.416;2023-02-01T12:41:04;6.80;;;1.40;;
74789;SDS011;63318;52.406;13.416;2023-02-01T12:43:41;6.30;;;1.10;;
74789;SDS011;63318;52.406;13.416;2023-02-01T12:46:15;2.70;;;1.00;;
74789;SDS011;63318;52.406;13.416;2023-02-01T12:48:50;4.40;;;1.10;;
74789;SDS011;63318;52.406;13.416;2023-02-01T12:51:26;7.30;;;1.40;;
74789;SDS011;63318;52.406;13.416;2023-02-01T12:53:57;5.70;;;1.20;;
74789;SDS011;63318;52.406;13.416;2023-02-01T12:56:32;8.60;;;1.70;;
74789;SDS011;63318;52.406;13.416;2023-02-01T12:59:15;7.40;;;1.10;;
74789;SDS011;63318;52.406;13.416;2023-02-01T13:01:50;5.40;;;1.20;;
74789;SDS011;63318;52.406;13.416;2023-02-01T13:04:26;8.10;;;1.20;;
74789;SDS011;63318;52.406;13.416;2023-02-01T13:07:04;4.70;;;1.40;;
74789;SDS011;63318;52.406;13.416;2023-02-01T13:09:41;7.70;;;1.70;;
74789;SDS011;63318;52.406;13.416;2023-02-01T13:12:16;3.90;;;1.10;;
74789;SDS011;63318;52.406;13.416;2023-02-01T13:14:48;7.30;;;1.10;;
74789;SDS011;63318;52.406;13.416;2023-02-01T13:17:21;5.90;;;1.10;;
74789;SDS011;63318;52.406;13.416;2023-02-01T13:19:52;5.50;;;1.10;;
74789;SDS011;63318;52.406;13.416;2023-02-01T13:22:25;6.20;;;1.20;;
74789;SDS011;63318;52.406;13.416;2023-02-01T13:24:57;6.00;;;1.50;;
74789;SDS011;63318;52.406;13.416;2023-02-01T13:27:29;9.30;;;1.30;;
74789;SDS011;63318;52.406;13.416;2023-02-01T13:29:59;4.70;;;1.00;;
74789;SDS011;63318;52.406;13.416;2023-02-01T13:32:47;5.60;;;1.20;;
74789;SDS011;63318;52.406;13.416;2023-02-01T13:35:44;8.50;;;1.90;;
74789;SDS011;63318;52.406;13.416;2023-02-01T13:38:38;6.80;;;1.20;;
74789;SDS011;63318;52.406;13.416;2023-02-01T13:41:27;3.80;;;1.10;;
74789;SDS011;63318;52.406;13.416;2023-02-01T13:43:58;6.20;;;1.10;;
74789;SDS011;63318;52.406;13.416;2023-02-01T13:46:29;5.80;;;1.60;;
74789;SDS011;63318;52.406;13.416;2023-02-01T13:49:04;10.10;;;1.20;;
74789;SDS011;63318;52.406;13.416;2023-02-01T13:51:35;13.40;;;1.80;;
74789;SDS011;63318;52.406;13.416;2023-02-01T13:54:18;9.70;;;1.70;;
74789;SDS011;63318;52.406;13.416;2023-02-01T13:56:54;9.40;;;1.50;;
74789;SDS011;63318;52.406;13.416;2023-02-01T13:59:48;8.60;;;1.80;;
74789;SDS011;63318;52.406;13.416;2023-02-01T14:08:15;6.80;;;1.50;;
74789;SDS011;63318;52.406;13.416;2023-02-01T14:10:51;6.60;;;1.20;;
74789;SDS011;63318;52.406;13.416;2023-02-01T14:13:25;7.90;;;1.30;;
74789;SDS011;63318;52.406;13.416;2023-02-01T14:16:15;8.10;;;1.30;;
74789;SDS011;63318;52.406;13.416;2023-02-01T14:21:35;8.30;;;1.40;;
74789;SDS011;63318;52.406;13.416;2023-02-01T14:24:19;8.90;;;1.80;;
74789;SDS011;63318;52.406;13.416;2023-02-01T14:26:51;8.60;;;1.60;;
74789;SDS011;63318;52.406;13.416;2023-02-01T14:29:24;8.20;;;1.70;;
74789;SDS011;63318;52.406;13.416;2023-02-01T14:32:01;6.30;;;1.70;;
74789;SDS011;63318;52.406;13.416;2023-02-01T14:34:35;7.60;;;1.40;;
74789;SDS011;63318;52.406;13.416;2023-02-01T14:37:07;9.50;;;1.40;;
74789;SDS011;63318;52.406;13.416;2023-02-01T14:39:46;7.20;;;1.80;;
74789;SDS011;63318;52.406;13.416;2023-02-01T14:42:24;8.30;;;1.50;;
74789;SDS011;63318;52.406;13.416;2023-02-01T14:47:31;7.90;;;1.60;;
74789;SDS011;63318;52.406;13.416;2023-02-01T14:52:45;7.10;;;1.40;;
74789;SDS011;63318;52.406;13.416;2023-02-01T14:55:17;5.60;;;1.70;;
74789;SDS011;63318;52.406;13.416;2023-02-01T14:57:52;7.70;;;1.30;;
74789;SDS011;63318;52.406;13.416;2023-02-01T15:00:26;6.10;;;1.20;;
74789;SDS011;63318;52.406;13.416;2023-02-01T15:02:56;8.60;;;1.70;;
74789;SDS011;63318;52.406;13.416;2023-02-01T15:05:52;4.70;;;1.00;;
74789;SDS011;63318;52.406;13.416;2023-02-01T15:08:24;6.10;;;1.40;;
74789;SDS011;63318;52.406;13.416;2023-02-01T15:10:54;5.20;;;1.50;;
74789;SDS011;63318;52.406;13.416;2023-02-01T15:13:27;8.10;;;2.10;;
74789;SDS011;63318;52.406;13.416;2023-02-01T15:16:07;6.40;;;1.50;;
74789;SDS011;63318;52.406;13.416;2023-02-01T15:18:40;7.50;;;1.00;;
74789;SDS011;63318;52.406;13.416;2023-02-01T15:21:15;5.90;;;1.70;;
74789;SDS011;63318;52.406;13.416;2023-02-01T15:23:45;4.40;;;1.20;;
74789;SDS011;63318;52.406;13.416;2023-02-01T15:26:25;5.20;;;1.20;;
74789;SDS011;63318;52.406;13.416;2023-02-01T15:28:57;3.20;;;1.00;;